Pagrindinis puslapis
METAR-TAF:

METAR-TAF

Oro uostai :

Šanchajaus Pudongo tarptautinis oro uostas

Šanchajus-Pudong, Kinija

platuma: 31-07N, ilguma: 121-46E, Aukštis: 4 m

Dabartinis oras

Ataskaita buvo paskelbta 19 minutes, ne 05:30 UTC
Vėjas 10 kt iš Šiaurės Rytų, svyruoja nuo Šiaurės ir Rytų/Šiaurės Rytų
Temperatūra 13°C
Drėgmė 51%
Slėgis 1028 hPa
Matomumas 10 km arba daugiau
Mažai debesys ne aukštis 4000 ft

METAR: ZSPD 120530Z 04005MPS 010V070 9999 FEW040 13/03 Q1028 NOSIG

Laikas: 13:49 (05:49 UTC)

Prognozė

Ataskaita buvo paskelbta 2 valandos ir 30 minutes, ne 03:19 UTC
Prognozė galioja nuo 12 metu 06 UTC su 13 metu 06 UTC
Vėjas 8 kt iš Šiaurės Rytų
Matomumas: 5000 m
Išsisklaidę debesys ne aukštis 2000 ft
migla
Tapsmas
nuo 12 metu 09 UTC su 12 metu 10 UTC
Vėjas 8 kt iš Rytų
Tapsmas
nuo 13 metu 02 UTC su 13 metu 03 UTC
Vėjas 10 kt iš Pietų/Pietryčių

TAF: ZSPD 120319Z 1206/1306 05004MPS 5000 HZ SCT020 TX13/1206Z TN05/1221Z BECMG 1209/1210 10004MPS BECMG 1302/1303 16005MPS

Orai ataskaitas ir orų prognozės (METAR, TAF).

turimą stotys yra geltonos ir raudonos taškus žemėlapyje.

Perkelti pele per norėdami pamatyti stoties vardą.

Tada spustelėkite, norėdami matyti oro stebėjimo ir prognozės.

Norėdami pakeisti žemėlapį: spustelėkite ant žalios mygtukų su juodo kryžiaus žemyn,; žalią mygtuką su brūkšneliu, jei norite nutolinti; arba žalių rodyklių gretimoms žemėlapius.


METAR-TAF: